Terminal Aerodrome Forecast
Issued by NWS

Home | Current Version | Previous Version | Text Only | Print | Product List | Glossary On
Versions: 1 2 3 4 5 6 7 8 9 10 11 12
000
FTUS44 KEWX 272300 RRA
TAFSSF
TAF
KSSF 272341Z 2800/2824 01013G20KT P6SM OVC025
     FM280400 36015KT P6SM VCSH OVC025
     FM280730 36016KT P6SM -RA OVC025
     FM281600 35008KT P6SM OVC025
     FM281900 36013KT P6SM BKN100
     FM282300 02004KT P6SM SCT250=

USA.gov is the U.S. government's official web portal to all federal, state and local government web resources and services.